sensor_id;sensor_type;location;lat;lon;timestamp;temperature;humidity
23783;DHT22;12071;50.850;4.446;2023-12-20T00:00:58;7.60;1.00
23783;DHT22;12071;50.850;4.446;2023-12-20T00:03:23;7.60;1.00
23783;DHT22;12071;50.850;4.446;2023-12-20T00:05:50;7.40;1.00
23783;DHT22;12071;50.850;4.446;2023-12-20T00:08:16;7.30;1.00
23783;DHT22;12071;50.850;4.446;2023-12-20T00:10:42;7.30;1.00
23783;DHT22;12071;50.850;4.446;2023-12-20T00:13:08;7.20;1.00
23783;DHT22;12071;50.850;4.446;2023-12-20T00:15:34;7.20;1.00
23783;DHT22;12071;50.850;4.446;2023-12-20T00:18:00;7.20;1.00
23783;DHT22;12071;50.850;4.446;2023-12-20T00:20:27;7.10;1.00
23783;DHT22;12071;50.850;4.446;2023-12-20T00:22:57;7.20;1.00
23783;DHT22;12071;50.850;4.446;2023-12-20T00:25:26;7.20;1.00
23783;DHT22;12071;50.850;4.446;2023-12-20T00:27:52;7.10;1.00
23783;DHT22;12071;50.850;4.446;2023-12-20T00:30:18;7.20;1.00
23783;DHT22;12071;50.850;4.446;2023-12-20T00:32:44;7.10;1.00
23783;DHT22;12071;50.850;4.446;2023-12-20T00:35:15;7.10;1.00
23783;DHT22;12071;50.850;4.446;2023-12-20T00:37:42;7.00;1.00
23783;DHT22;12071;50.850;4.446;2023-12-20T00:40:08;7.00;1.00
23783;DHT22;12071;50.850;4.446;2023-12-20T00:42:34;7.00;1.00
23783;DHT22;12071;50.850;4.446;2023-12-20T00:45:00;7.00;1.00
23783;DHT22;12071;50.850;4.446;2023-12-20T00:47:26;7.00;1.00
23783;DHT22;12071;50.850;4.446;2023-12-20T00:49:52;7.00;1.00
23783;DHT22;12071;50.850;4.446;2023-12-20T00:52:18;7.00;1.00
23783;DHT22;12071;50.850;4.446;2023-12-20T00:54:45;7.10;1.00
23783;DHT22;12071;50.850;4.446;2023-12-20T00:57:10;7.10;1.00
23783;DHT22;12071;50.850;4.446;2023-12-20T00:59:36;7.10;1.00
23783;DHT22;12071;50.850;4.446;2023-12-20T01:02:02;7.00;1.00
23783;DHT22;12071;50.850;4.446;2023-12-20T01:04:28;7.10;1.00
23783;DHT22;12071;50.850;4.446;2023-12-20T01:06:54;6.90;1.00
23783;DHT22;12071;50.850;4.446;2023-12-20T01:09:19;6.70;1.00
23783;DHT22;12071;50.850;4.446;2023-12-20T01:11:49;6.80;1.00
23783;DHT22;12071;50.850;4.446;2023-12-20T01:14:14;6.70;1.00
23783;DHT22;12071;50.850;4.446;2023-12-20T01:16:40;6.60;1.00
23783;DHT22;12071;50.850;4.446;2023-12-20T01:19:06;6.60;1.00
23783;DHT22;12071;50.850;4.446;2023-12-20T01:21:32;6.60;1.00
23783;DHT22;12071;50.850;4.446;2023-12-20T01:23:58;6.60;1.00
23783;DHT22;12071;50.850;4.446;2023-12-20T01:26:23;6.60;1.00
23783;DHT22;12071;50.850;4.446;2023-12-20T01:28:49;6.50;1.00
23783;DHT22;12071;50.850;4.446;2023-12-20T01:31:15;6.50;1.00
23783;DHT22;12071;50.850;4.446;2023-12-20T01:33:41;6.60;1.00
23783;DHT22;12071;50.850;4.446;2023-12-20T01:36:06;6.70;1.00
23783;DHT22;12071;50.850;4.446;2023-12-20T01:38:32;6.60;1.00
23783;DHT22;12071;50.850;4.446;2023-12-20T01:40:58;6.50;1.00
23783;DHT22;12071;50.850;4.446;2023-12-20T01:43:23;6.60;1.00
23783;DHT22;12071;50.850;4.446;2023-12-20T01:45:49;6.50;1.00
23783;DHT22;12071;50.850;4.446;2023-12-20T01:48:16;6.50;1.00
23783;DHT22;12071;50.850;4.446;2023-12-20T01:50:43;6.40;1.00
23783;DHT22;12071;50.850;4.446;2023-12-20T01:53:10;6.40;1.20
23783;DHT22;12071;50.850;4.446;2023-12-20T01:55:39;6.40;3.20
23783;DHT22;12071;50.850;4.446;2023-12-20T01:58:05;6.50;4.70
23783;DHT22;12071;50.850;4.446;2023-12-20T02:00:31;6.50;1.00
23783;DHT22;12071;50.850;4.446;2023-12-20T02:03:00;6.50;1.00
23783;DHT22;12071;50.850;4.446;2023-12-20T02:05:26;6.50;1.00
23783;DHT22;12071;50.850;4.446;2023-12-20T02:07:53;6.50;1.00
23783;DHT22;12071;50.850;4.446;2023-12-20T02:10:19;6.50;1.00
23783;DHT22;12071;50.850;4.446;2023-12-20T02:12:45;6.50;1.00
23783;DHT22;12071;50.850;4.446;2023-12-20T02:15:10;6.50;1.00
23783;DHT22;12071;50.850;4.446;2023-12-20T02:17:36;6.40;1.00
23783;DHT22;12071;50.850;4.446;2023-12-20T02:20:04;6.40;1.00
23783;DHT22;12071;50.850;4.446;2023-12-20T02:22:31;6.50;1.00
23783;DHT22;12071;50.850;4.446;2023-12-20T02:24:57;6.50;1.00
23783;DHT22;12071;50.850;4.446;2023-12-20T02:27:23;6.50;1.00
23783;DHT22;12071;50.850;4.446;2023-12-20T02:29:50;6.50;1.00
23783;DHT22;12071;50.850;4.446;2023-12-20T02:32:19;6.40;1.00
23783;DHT22;12071;50.850;4.446;2023-12-20T02:34:49;6.40;1.00
23783;DHT22;12071;50.850;4.446;2023-12-20T02:37:15;6.40;1.00
23783;DHT22;12071;50.850;4.446;2023-12-20T02:39:40;6.50;1.00
23783;DHT22;12071;50.850;4.446;2023-12-20T02:42:06;6.50;1.00
23783;DHT22;12071;50.850;4.446;2023-12-20T02:44:32;6.60;1.00
23783;DHT22;12071;50.850;4.446;2023-12-20T02:46:58;6.60;1.00
23783;DHT22;12071;50.850;4.446;2023-12-20T02:49:23;6.60;1.00
23783;DHT22;12071;50.850;4.446;2023-12-20T02:51:49;6.70;1.00
23783;DHT22;12071;50.850;4.446;2023-12-20T02:54:15;6.70;1.00
23783;DHT22;12071;50.850;4.446;2023-12-20T02:56:40;6.70;1.00
23783;DHT22;12071;50.850;4.446;2023-12-20T02:59:06;6.60;1.00
23783;DHT22;12071;50.850;4.446;2023-12-20T03:01:34;6.70;1.00
23783;DHT22;12071;50.850;4.446;2023-12-20T03:04:01;6.70;1.00
23783;DHT22;12071;50.850;4.446;2023-12-20T03:06:26;6.60;1.00
23783;DHT22;12071;50.850;4.446;2023-12-20T03:08:52;6.60;1.00
23783;DHT22;12071;50.850;4.446;2023-12-20T03:11:18;6.50;1.00
23783;DHT22;12071;50.850;4.446;2023-12-20T03:13:44;6.40;1.00
23783;DHT22;12071;50.850;4.446;2023-12-20T03:16:10;6.30;1.00
23783;DHT22;12071;50.850;4.446;2023-12-20T03:18:36;6.50;1.00
23783;DHT22;12071;50.850;4.446;2023-12-20T03:21:02;6.70;2.20
23783;DHT22;12071;50.850;4.446;2023-12-20T03:23:29;6.50;1.00
23783;DHT22;12071;50.850;4.446;2023-12-20T03:25:56;6.60;1.00
23783;DHT22;12071;50.850;4.446;2023-12-20T03:28:22;6.60;1.00
23783;DHT22;12071;50.850;4.446;2023-12-20T03:30:48;6.50;1.00
23783;DHT22;12071;50.850;4.446;2023-12-20T03:33:14;6.50;1.00
23783;DHT22;12071;50.850;4.446;2023-12-20T03:35:40;6.50;1.00
23783;DHT22;12071;50.850;4.446;2023-12-20T03:38:06;6.60;1.00
23783;DHT22;12071;50.850;4.446;2023-12-20T03:40:31;6.70;1.00
23783;DHT22;12071;50.850;4.446;2023-12-20T03:42:57;6.70;1.00
23783;DHT22;12071;50.850;4.446;2023-12-20T03:45:23;6.60;1.00
23783;DHT22;12071;50.850;4.446;2023-12-20T03:47:48;6.50;1.00
23783;DHT22;12071;50.850;4.446;2023-12-20T03:50:15;6.60;1.00
23783;DHT22;12071;50.850;4.446;2023-12-20T03:52:40;6.60;1.00
23783;DHT22;12071;50.850;4.446;2023-12-20T03:55:06;6.50;1.00
23783;DHT22;12071;50.850;4.446;2023-12-20T03:57:32;6.60;1.00
23783;DHT22;12071;50.850;4.446;2023-12-20T03:59:58;6.70;1.00
23783;DHT22;12071;50.850;4.446;2023-12-20T04:02:23;6.70;1.00
23783;DHT22;12071;50.850;4.446;2023-12-20T04:04:49;6.80;1.00
23783;DHT22;12071;50.850;4.446;2023-12-20T04:07:15;6.80;1.00
23783;DHT22;12071;50.850;4.446;2023-12-20T04:09:41;6.80;1.00
23783;DHT22;12071;50.850;4.446;2023-12-20T04:12:07;7.00;1.00
23783;DHT22;12071;50.850;4.446;2023-12-20T04:14:32;6.90;1.00
23783;DHT22;12071;50.850;4.446;2023-12-20T04:16:58;6.90;1.00
23783;DHT22;12071;50.850;4.446;2023-12-20T04:19:24;6.80;1.00
23783;DHT22;12071;50.850;4.446;2023-12-20T04:21:49;7.00;1.00
23783;DHT22;12071;50.850;4.446;2023-12-20T04:24:15;6.80;1.00
23783;DHT22;12071;50.850;4.446;2023-12-20T04:26:41;6.70;1.00
23783;DHT22;12071;50.850;4.446;2023-12-20T04:29:07;6.70;1.00
23783;DHT22;12071;50.850;4.446;2023-12-20T04:31:32;6.70;1.00
23783;DHT22;12071;50.850;4.446;2023-12-20T04:33:59;6.90;1.00
23783;DHT22;12071;50.850;4.446;2023-12-20T04:36:24;6.90;1.00
23783;DHT22;12071;50.850;4.446;2023-12-20T04:38:55;6.70;1.00
23783;DHT22;12071;50.850;4.446;2023-12-20T04:41:21;6.70;1.00
23783;DHT22;12071;50.850;4.446;2023-12-20T04:43:46;6.70;1.00
23783;DHT22;12071;50.850;4.446;2023-12-20T04:46:12;6.70;1.00
23783;DHT22;12071;50.850;4.446;2023-12-20T04:48:38;6.60;1.00
23783;DHT22;12071;50.850;4.446;2023-12-20T04:51:04;6.70;1.00
23783;DHT22;12071;50.850;4.446;2023-12-20T04:53:30;6.80;1.00
23783;DHT22;12071;50.850;4.446;2023-12-20T04:55:55;6.70;1.00
23783;DHT22;12071;50.850;4.446;2023-12-20T04:58:21;6.70;1.00
23783;DHT22;12071;50.850;4.446;2023-12-20T05:00:47;6.70;1.00
23783;DHT22;12071;50.850;4.446;2023-12-20T05:03:12;6.90;1.00
23783;DHT22;12071;50.850;4.446;2023-12-20T05:05:38;6.80;1.00
23783;DHT22;12071;50.850;4.446;2023-12-20T05:08:04;6.70;1.00
23783;DHT22;12071;50.850;4.446;2023-12-20T05:10:30;6.60;1.00
23783;DHT22;12071;50.850;4.446;2023-12-20T05:12:55;6.60;1.00
23783;DHT22;12071;50.850;4.446;2023-12-20T05:15:21;6.60;1.00
23783;DHT22;12071;50.850;4.446;2023-12-20T05:17:47;6.60;1.00
23783;DHT22;12071;50.850;4.446;2023-12-20T05:20:13;6.70;1.00
23783;DHT22;12071;50.850;4.446;2023-12-20T05:22:38;6.70;1.00
23783;DHT22;12071;50.850;4.446;2023-12-20T05:25:04;6.50;1.00
23783;DHT22;12071;50.850;4.446;2023-12-20T05:27:30;6.60;1.00
23783;DHT22;12071;50.850;4.446;2023-12-20T05:29:56;6.60;1.00
23783;DHT22;12071;50.850;4.446;2023-12-20T05:32:23;6.50;1.00
23783;DHT22;12071;50.850;4.446;2023-12-20T05:34:49;6.60;1.00
23783;DHT22;12071;50.850;4.446;2023-12-20T05:37:15;6.60;1.00
23783;DHT22;12071;50.850;4.446;2023-12-20T05:39:41;6.50;1.00
23783;DHT22;12071;50.850;4.446;2023-12-20T05:42:06;6.50;1.00
23783;DHT22;12071;50.850;4.446;2023-12-20T05:44:32;6.50;1.00
23783;DHT22;12071;50.850;4.446;2023-12-20T05:46:58;6.40;1.00
23783;DHT22;12071;50.850;4.446;2023-12-20T05:49:23;6.40;1.00
23783;DHT22;12071;50.850;4.446;2023-12-20T05:51:49;6.40;1.00
23783;DHT22;12071;50.850;4.446;2023-12-20T05:54:16;6.30;1.00
23783;DHT22;12071;50.850;4.446;2023-12-20T05:56:42;6.30;1.00
23783;DHT22;12071;50.850;4.446;2023-12-20T05:59:08;6.30;1.00
23783;DHT22;12071;50.850;4.446;2023-12-20T06:01:33;6.10;1.00
23783;DHT22;12071;50.850;4.446;2023-12-20T06:03:59;6.10;1.00
23783;DHT22;12071;50.850;4.446;2023-12-20T06:06:25;6.10;1.00
23783;DHT22;12071;50.850;4.446;2023-12-20T06:08:50;6.00;1.00
23783;DHT22;12071;50.850;4.446;2023-12-20T06:11:16;5.90;1.00
23783;DHT22;12071;50.850;4.446;2023-12-20T06:13:42;5.90;1.00
23783;DHT22;12071;50.850;4.446;2023-12-20T06:16:07;6.10;1.50
23783;DHT22;12071;50.850;4.446;2023-12-20T06:18:33;6.10;1.00
23783;DHT22;12071;50.850;4.446;2023-12-20T06:20:59;6.10;1.00
23783;DHT22;12071;50.850;4.446;2023-12-20T06:23:24;6.30;1.00
23783;DHT22;12071;50.850;4.446;2023-12-20T06:25:50;6.40;1.00
23783;DHT22;12071;50.850;4.446;2023-12-20T06:28:16;6.30;1.00
23783;DHT22;12071;50.850;4.446;2023-12-20T06:30:41;6.20;1.00
23783;DHT22;12071;50.850;4.446;2023-12-20T06:33:07;6.20;1.00
23783;DHT22;12071;50.850;4.446;2023-12-20T06:35:35;6.20;1.00
23783;DHT22;12071;50.850;4.446;2023-12-20T06:38:00;6.20;1.00
23783;DHT22;12071;50.850;4.446;2023-12-20T06:40:26;6.30;1.00
23783;DHT22;12071;50.850;4.446;2023-12-20T06:42:52;6.40;1.00
23783;DHT22;12071;50.850;4.446;2023-12-20T06:45:18;6.40;1.00
23783;DHT22;12071;50.850;4.446;2023-12-20T06:47:43;6.30;1.00
23783;DHT22;12071;50.850;4.446;2023-12-20T06:50:09;6.40;1.00
23783;DHT22;12071;50.850;4.446;2023-12-20T06:52:35;6.60;1.00
23783;DHT22;12071;50.850;4.446;2023-12-20T06:55:01;6.60;1.00
23783;DHT22;12071;50.850;4.446;2023-12-20T06:57:27;6.50;1.00
23783;DHT22;12071;50.850;4.446;2023-12-20T06:59:53;6.40;1.00
23783;DHT22;12071;50.850;4.446;2023-12-20T07:02:19;6.30;1.00
23783;DHT22;12071;50.850;4.446;2023-12-20T07:04:44;6.20;1.00
23783;DHT22;12071;50.850;4.446;2023-12-20T07:07:10;6.00;1.00
23783;DHT22;12071;50.850;4.446;2023-12-20T07:09:36;6.00;1.00
23783;DHT22;12071;50.850;4.446;2023-12-20T07:12:02;5.90;1.00
23783;DHT22;12071;50.850;4.446;2023-12-20T07:14:27;6.00;1.00
23783;DHT22;12071;50.850;4.446;2023-12-20T07:16:54;6.00;1.00
23783;DHT22;12071;50.850;4.446;2023-12-20T07:19:20;6.00;1.00
23783;DHT22;12071;50.850;4.446;2023-12-20T07:21:46;5.80;1.00
23783;DHT22;12071;50.850;4.446;2023-12-20T07:24:11;5.90;1.00
23783;DHT22;12071;50.850;4.446;2023-12-20T07:26:37;5.90;1.00
23783;DHT22;12071;50.850;4.446;2023-12-20T07:29:04;5.90;1.00
23783;DHT22;12071;50.850;4.446;2023-12-20T07:31:29;5.80;1.00
23783;DHT22;12071;50.850;4.446;2023-12-20T07:33:58;5.70;1.00
23783;DHT22;12071;50.850;4.446;2023-12-20T07:36:24;5.70;1.00
23783;DHT22;12071;50.850;4.446;2023-12-20T07:38:50;5.60;1.00
23783;DHT22;12071;50.850;4.446;2023-12-20T07:41:16;5.80;1.00
23783;DHT22;12071;50.850;4.446;2023-12-20T07:43:42;5.90;1.00
23783;DHT22;12071;50.850;4.446;2023-12-20T07:46:08;5.80;1.00
23783;DHT22;12071;50.850;4.446;2023-12-20T07:48:35;5.70;1.00
23783;DHT22;12071;50.850;4.446;2023-12-20T07:51:01;5.60;1.00
23783;DHT22;12071;50.850;4.446;2023-12-20T07:53:27;5.60;1.00
23783;DHT22;12071;50.850;4.446;2023-12-20T07:55:53;5.60;1.00
23783;DHT22;12071;50.850;4.446;2023-12-20T07:58:19;5.60;1.00
23783;DHT22;12071;50.850;4.446;2023-12-20T08:00:45;5.50;1.00
23783;DHT22;12071;50.850;4.446;2023-12-20T08:03:10;5.50;1.00
23783;DHT22;12071;50.850;4.446;2023-12-20T08:05:38;5.70;1.00
23783;DHT22;12071;50.850;4.446;2023-12-20T08:08:06;5.60;1.00
23783;DHT22;12071;50.850;4.446;2023-12-20T08:10:32;5.70;1.00
23783;DHT22;12071;50.850;4.446;2023-12-20T08:12:58;5.60;1.00
23783;DHT22;12071;50.850;4.446;2023-12-20T08:15:23;5.80;1.00
23783;DHT22;12071;50.850;4.446;2023-12-20T08:17:49;5.70;1.00
23783;DHT22;12071;50.850;4.446;2023-12-20T08:20:17;5.80;1.00
23783;DHT22;12071;50.850;4.446;2023-12-20T08:22:42;5.70;1.00
23783;DHT22;12071;50.850;4.446;2023-12-20T08:25:08;5.60;1.00
23783;DHT22;12071;50.850;4.446;2023-12-20T08:27:39;5.70;1.00
23783;DHT22;12071;50.850;4.446;2023-12-20T08:30:06;5.90;1.00
23783;DHT22;12071;50.850;4.446;2023-12-20T08:32:31;5.80;1.00
23783;DHT22;12071;50.850;4.446;2023-12-20T08:34:57;6.00;1.00
23783;DHT22;12071;50.850;4.446;2023-12-20T08:37:24;6.00;1.00
23783;DHT22;12071;50.850;4.446;2023-12-20T08:39:49;5.90;1.00
23783;DHT22;12071;50.850;4.446;2023-12-20T08:42:15;6.00;1.00
23783;DHT22;12071;50.850;4.446;2023-12-20T08:44:40;6.00;1.00
23783;DHT22;12071;50.850;4.446;2023-12-20T08:47:06;6.10;1.00
23783;DHT22;12071;50.850;4.446;2023-12-20T08:49:32;5.90;1.00
23783;DHT22;12071;50.850;4.446;2023-12-20T08:51:58;6.00;1.00
23783;DHT22;12071;50.850;4.446;2023-12-20T08:54:24;6.00;1.00
23783;DHT22;12071;50.850;4.446;2023-12-20T08:56:50;6.10;1.00
23783;DHT22;12071;50.850;4.446;2023-12-20T08:59:15;6.10;1.00
23783;DHT22;12071;50.850;4.446;2023-12-20T09:01:41;6.10;1.00
23783;DHT22;12071;50.850;4.446;2023-12-20T09:04:07;6.10;1.00
23783;DHT22;12071;50.850;4.446;2023-12-20T09:06:33;6.10;1.00
23783;DHT22;12071;50.850;4.446;2023-12-20T09:08:59;6.10;1.00
23783;DHT22;12071;50.850;4.446;2023-12-20T09:11:25;6.20;1.00
23783;DHT22;12071;50.850;4.446;2023-12-20T09:13:50;6.20;1.00
23783;DHT22;12071;50.850;4.446;2023-12-20T09:16:16;6.30;1.00
23783;DHT22;12071;50.850;4.446;2023-12-20T09:18:42;6.30;1.00
23783;DHT22;12071;50.850;4.446;2023-12-20T09:21:08;6.30;1.00
23783;DHT22;12071;50.850;4.446;2023-12-20T09:23:34;6.40;1.00
23783;DHT22;12071;50.850;4.446;2023-12-20T09:25:59;6.40;1.00
23783;DHT22;12071;50.850;4.446;2023-12-20T09:28:25;6.40;1.00
23783;DHT22;12071;50.850;4.446;2023-12-20T09:30:51;6.40;1.00
23783;DHT22;12071;50.850;4.446;2023-12-20T09:33:16;6.50;1.00
23783;DHT22;12071;50.850;4.446;2023-12-20T09:35:42;6.60;1.00
23783;DHT22;12071;50.850;4.446;2023-12-20T09:38:08;6.50;1.00
23783;DHT22;12071;50.850;4.446;2023-12-20T09:40:35;6.60;1.00
23783;DHT22;12071;50.850;4.446;2023-12-20T09:43:13;6.60;1.00
23783;DHT22;12071;50.850;4.446;2023-12-20T09:45:40;6.60;1.00
23783;DHT22;12071;50.850;4.446;2023-12-20T09:48:07;6.80;1.00
23783;DHT22;12071;50.850;4.446;2023-12-20T09:50:36;7.00;1.00
23783;DHT22;12071;50.850;4.446;2023-12-20T09:53:02;7.20;1.00
23783;DHT22;12071;50.850;4.446;2023-12-20T09:55:32;7.20;1.00
23783;DHT22;12071;50.850;4.446;2023-12-20T09:57:59;7.00;1.00
23783;DHT22;12071;50.850;4.446;2023-12-20T10:00:24;7.10;1.00
23783;DHT22;12071;50.850;4.446;2023-12-20T10:02:57;6.90;1.00
23783;DHT22;12071;50.850;4.446;2023-12-20T10:05:27;6.90;1.00
23783;DHT22;12071;50.850;4.446;2023-12-20T10:07:53;6.90;1.00
23783;DHT22;12071;50.850;4.446;2023-12-20T10:10:19;7.10;1.00
23783;DHT22;12071;50.850;4.446;2023-12-20T10:13:05;7.10;1.00
23783;DHT22;12071;50.850;4.446;2023-12-20T10:15:33;7.20;1.00
23783;DHT22;12071;50.850;4.446;2023-12-20T10:17:58;7.30;1.00
23783;DHT22;12071;50.850;4.446;2023-12-20T10:20:25;7.20;1.00
23783;DHT22;12071;50.850;4.446;2023-12-20T10:22:51;7.30;1.00
23783;DHT22;12071;50.850;4.446;2023-12-20T10:25:20;7.20;1.00
23783;DHT22;12071;50.850;4.446;2023-12-20T10:27:46;7.50;1.00
23783;DHT22;12071;50.850;4.446;2023-12-20T10:30:12;7.60;1.00
23783;DHT22;12071;50.850;4.446;2023-12-20T10:32:38;7.60;1.00
23783;DHT22;12071;50.850;4.446;2023-12-20T10:35:04;7.70;1.00
23783;DHT22;12071;50.850;4.446;2023-12-20T10:37:30;7.80;1.00
23783;DHT22;12071;50.850;4.446;2023-12-20T10:39:55;8.00;1.00
23783;DHT22;12071;50.850;4.446;2023-12-20T10:42:25;8.00;1.00
23783;DHT22;12071;50.850;4.446;2023-12-20T10:44:52;7.90;1.00
23783;DHT22;12071;50.850;4.446;2023-12-20T10:47:20;7.80;1.00
23783;DHT22;12071;50.850;4.446;2023-12-20T10:49:46;7.70;1.00
23783;DHT22;12071;50.850;4.446;2023-12-20T10:52:12;7.70;1.00
23783;DHT22;12071;50.850;4.446;2023-12-20T10:54:39;7.70;1.00
23783;DHT22;12071;50.850;4.446;2023-12-20T10:57:06;7.60;1.00
23783;DHT22;12071;50.850;4.446;2023-12-20T10:59:37;7.80;1.00
23783;DHT22;12071;50.850;4.446;2023-12-20T11:02:06;8.00;1.00
23783;DHT22;12071;50.850;4.446;2023-12-20T11:04:55;8.20;1.00
23783;DHT22;12071;50.850;4.446;2023-12-20T11:07:29;8.20;1.00
23783;DHT22;12071;50.850;4.446;2023-12-20T11:13:16;8.20;1.00
23783;DHT22;12071;50.850;4.446;2023-12-20T11:15:43;8.10;1.00
23783;DHT22;12071;50.850;4.446;2023-12-20T11:18:09;8.10;1.00
23783;DHT22;12071;50.850;4.446;2023-12-20T11:20:39;8.20;1.00
23783;DHT22;12071;50.850;4.446;2023-12-20T11:23:08;8.30;1.00
23783;DHT22;12071;50.850;4.446;2023-12-20T11:25:52;8.20;1.00
23783;DHT22;12071;50.850;4.446;2023-12-20T11:28:23;8.20;1.00
23783;DHT22;12071;50.850;4.446;2023-12-20T11:30:51;8.10;1.00
23783;DHT22;12071;50.850;4.446;2023-12-20T11:33:25;8.20;1.00
23783;DHT22;12071;50.850;4.446;2023-12-20T11:35:51;8.20;1.00
23783;DHT22;12071;50.850;4.446;2023-12-20T11:38:19;8.20;1.00
23783;DHT22;12071;50.850;4.446;2023-12-20T11:40:49;8.20;1.00
23783;DHT22;12071;50.850;4.446;2023-12-20T11:46:05;8.30;1.00
23783;DHT22;12071;50.850;4.446;2023-12-20T11:48:32;8.30;1.00
23783;DHT22;12071;50.850;4.446;2023-12-20T11:50:58;8.40;1.00
23783;DHT22;12071;50.850;4.446;2023-12-20T11:53:24;8.40;1.00
23783;DHT22;12071;50.850;4.446;2023-12-20T11:55:50;8.40;1.00
23783;DHT22;12071;50.850;4.446;2023-12-20T11:58:16;8.50;1.00
23783;DHT22;12071;50.850;4.446;2023-12-20T12:00:42;8.50;1.00
23783;DHT22;12071;50.850;4.446;2023-12-20T12:03:09;8.40;1.00
23783;DHT22;12071;50.850;4.446;2023-12-20T12:05:35;8.60;1.00
23783;DHT22;12071;50.850;4.446;2023-12-20T12:08:04;8.50;1.00
23783;DHT22;12071;50.850;4.446;2023-12-20T12:10:30;8.50;1.00
23783;DHT22;12071;50.850;4.446;2023-12-20T12:12:56;8.40;1.00
23783;DHT22;12071;50.850;4.446;2023-12-20T12:15:22;8.50;1.00
23783;DHT22;12071;50.850;4.446;2023-12-20T12:17:54;8.70;1.00
23783;DHT22;12071;50.850;4.446;2023-12-20T12:20:22;8.50;1.00
23783;DHT22;12071;50.850;4.446;2023-12-20T12:23:04;8.50;1.00
23783;DHT22;12071;50.850;4.446;2023-12-20T12:25:32;8.50;1.00
23783;DHT22;12071;50.850;4.446;2023-12-20T12:27:58;8.60;1.00
23783;DHT22;12071;50.850;4.446;2023-12-20T12:30:25;8.60;1.00
23783;DHT22;12071;50.850;4.446;2023-12-20T12:32:52;8.70;1.00
23783;DHT22;12071;50.850;4.446;2023-12-20T12:35:18;8.70;1.00
23783;DHT22;12071;50.850;4.446;2023-12-20T12:37:44;8.70;1.00
23783;DHT22;12071;50.850;4.446;2023-12-20T12:40:11;8.60;1.00
23783;DHT22;12071;50.850;4.446;2023-12-20T12:42:37;8.70;1.00
23783;DHT22;12071;50.850;4.446;2023-12-20T12:45:04;8.80;1.00
23783;DHT22;12071;50.850;4.446;2023-12-20T12:47:30;8.90;1.00
23783;DHT22;12071;50.850;4.446;2023-12-20T12:49:56;8.80;1.00
23783;DHT22;12071;50.850;4.446;2023-12-20T12:52:22;8.70;1.00
23783;DHT22;12071;50.850;4.446;2023-12-20T12:54:48;8.70;1.00
23783;DHT22;12071;50.850;4.446;2023-12-20T12:57:14;8.60;1.00
23783;DHT22;12071;50.850;4.446;2023-12-20T12:59:41;8.50;1.00
23783;DHT22;12071;50.850;4.446;2023-12-20T13:02:07;8.60;1.00
23783;DHT22;12071;50.850;4.446;2023-12-20T13:04:33;8.70;1.00
23783;DHT22;12071;50.850;4.446;2023-12-20T13:06:59;8.80;1.00
23783;DHT22;12071;50.850;4.446;2023-12-20T13:09:25;8.80;1.00
23783;DHT22;12071;50.850;4.446;2023-12-20T13:11:51;8.70;1.00
23783;DHT22;12071;50.850;4.446;2023-12-20T13:14:16;8.80;1.00
23783;DHT22;12071;50.850;4.446;2023-12-20T13:16:42;8.80;1.00
23783;DHT22;12071;50.850;4.446;2023-12-20T13:19:08;8.70;1.00
23783;DHT22;12071;50.850;4.446;2023-12-20T13:21:35;8.60;1.00
23783;DHT22;12071;50.850;4.446;2023-12-20T13:24:01;8.60;1.00
23783;DHT22;12071;50.850;4.446;2023-12-20T13:26:27;8.70;1.00
23783;DHT22;12071;50.850;4.446;2023-12-20T13:28:54;8.80;1.00
23783;DHT22;12071;50.850;4.446;2023-12-20T13:31:20;9.00;1.00
23783;DHT22;12071;50.850;4.446;2023-12-20T13:33:46;9.00;1.00
23783;DHT22;12071;50.850;4.446;2023-12-20T13:36:12;9.00;1.00
23783;DHT22;12071;50.850;4.446;2023-12-20T13:38:37;9.00;1.00
23783;DHT22;12071;50.850;4.446;2023-12-20T13:41:03;9.10;1.00
23783;DHT22;12071;50.850;4.446;2023-12-20T13:43:30;9.10;1.00
23783;DHT22;12071;50.850;4.446;2023-12-20T13:45:57;9.20;1.00
23783;DHT22;12071;50.850;4.446;2023-12-20T13:48:22;9.30;1.00
23783;DHT22;12071;50.850;4.446;2023-12-20T13:50:48;9.30;1.00
23783;DHT22;12071;50.850;4.446;2023-12-20T13:53:14;9.30;1.00
23783;DHT22;12071;50.850;4.446;2023-12-20T13:55:40;9.40;1.00
23783;DHT22;12071;50.850;4.446;2023-12-20T13:58:05;9.30;1.00
23783;DHT22;12071;50.850;4.446;2023-12-20T14:00:31;9.20;1.00
23783;DHT22;12071;50.850;4.446;2023-12-20T14:02:57;9.00;1.00
23783;DHT22;12071;50.850;4.446;2023-12-20T14:05:24;9.00;1.00
23783;DHT22;12071;50.850;4.446;2023-12-20T14:07:49;9.00;1.00
23783;DHT22;12071;50.850;4.446;2023-12-20T14:10:16;9.00;1.00
23783;DHT22;12071;50.850;4.446;2023-12-20T14:12:42;9.00;1.00
23783;DHT22;12071;50.850;4.446;2023-12-20T14:15:08;9.20;1.00
23783;DHT22;12071;50.850;4.446;2023-12-20T14:17:37;9.10;1.00
23783;DHT22;12071;50.850;4.446;2023-12-20T14:20:05;9.20;1.00
23783;DHT22;12071;50.850;4.446;2023-12-20T14:22:31;9.30;1.00
23783;DHT22;12071;50.850;4.446;2023-12-20T14:24:57;9.30;1.00
23783;DHT22;12071;50.850;4.446;2023-12-20T14:27:23;9.50;1.00
23783;DHT22;12071;50.850;4.446;2023-12-20T14:29:50;9.50;1.00
23783;DHT22;12071;50.850;4.446;2023-12-20T14:32:15;9.30;1.00
23783;DHT22;12071;50.850;4.446;2023-12-20T14:34:41;9.30;1.00
23783;DHT22;12071;50.850;4.446;2023-12-20T14:37:07;9.40;1.00
23783;DHT22;12071;50.850;4.446;2023-12-20T14:39:33;9.50;1.00
23783;DHT22;12071;50.850;4.446;2023-12-20T14:41:58;9.40;1.00
23783;DHT22;12071;50.850;4.446;2023-12-20T14:44:24;9.30;1.00
23783;DHT22;12071;50.850;4.446;2023-12-20T14:46:50;9.40;1.00
23783;DHT22;12071;50.850;4.446;2023-12-20T14:49:16;9.50;1.00
23783;DHT22;12071;50.850;4.446;2023-12-20T14:51:45;9.60;1.00
23783;DHT22;12071;50.850;4.446;2023-12-20T14:54:13;9.50;1.00
23783;DHT22;12071;50.850;4.446;2023-12-20T14:56:39;9.40;1.00
23783;DHT22;12071;50.850;4.446;2023-12-20T14:59:05;9.40;1.00
23783;DHT22;12071;50.850;4.446;2023-12-20T15:01:31;9.60;1.00
23783;DHT22;12071;50.850;4.446;2023-12-20T15:03:56;9.50;1.00
23783;DHT22;12071;50.850;4.446;2023-12-20T15:06:22;9.40;1.00
23783;DHT22;12071;50.850;4.446;2023-12-20T15:08:48;9.40;1.00
23783;DHT22;12071;50.850;4.446;2023-12-20T15:11:14;9.50;1.00
23783;DHT22;12071;50.850;4.446;2023-12-20T15:13:39;9.60;1.00
23783;DHT22;12071;50.850;4.446;2023-12-20T15:16:05;9.60;1.00
23783;DHT22;12071;50.850;4.446;2023-12-20T15:18:31;9.40;1.00
23783;DHT22;12071;50.850;4.446;2023-12-20T15:20:57;9.50;1.00
23783;DHT22;12071;50.850;4.446;2023-12-20T15:23:23;9.50;1.00
23783;DHT22;12071;50.850;4.446;2023-12-20T15:25:51;9.60;1.00
23783;DHT22;12071;50.850;4.446;2023-12-20T15:28:17;9.70;1.00
23783;DHT22;12071;50.850;4.446;2023-12-20T15:30:43;9.60;1.00
23783;DHT22;12071;50.850;4.446;2023-12-20T15:33:09;9.70;1.00
23783;DHT22;12071;50.850;4.446;2023-12-20T15:35:34;9.70;1.00
23783;DHT22;12071;50.850;4.446;2023-12-20T15:38:00;9.60;1.00
23783;DHT22;12071;50.850;4.446;2023-12-20T15:40:26;9.40;1.00
23783;DHT22;12071;50.850;4.446;2023-12-20T15:42:52;9.50;1.00
23783;DHT22;12071;50.850;4.446;2023-12-20T15:45:18;9.60;1.00
23783;DHT22;12071;50.850;4.446;2023-12-20T15:47:44;9.50;1.00
23783;DHT22;12071;50.850;4.446;2023-12-20T15:50:11;9.50;1.00
23783;DHT22;12071;50.850;4.446;2023-12-20T15:52:37;9.50;1.00
23783;DHT22;12071;50.850;4.446;2023-12-20T15:55:03;9.50;1.00
23783;DHT22;12071;50.850;4.446;2023-12-20T15:57:29;9.40;1.00
23783;DHT22;12071;50.850;4.446;2023-12-20T15:59:55;9.50;1.00
23783;DHT22;12071;50.850;4.446;2023-12-20T16:02:20;9.70;1.00